createdAt,value
2022-11-17T00:01:08.941Z,57.15
2022-11-17T00:05:54.277Z,67.07
2022-11-17T00:10:41.990Z,53.97
2022-11-17T00:15:27.360Z,75.68
2022-11-17T00:20:26.622Z,62.80
2022-11-17T00:25:12.223Z,72.50
2022-11-17T00:29:59.960Z,67.97
2022-11-17T00:34:45.360Z,71.38
2022-11-17T00:39:30.434Z,58.50
2022-11-17T00:44:16.321Z,64.55
2022-11-17T00:49:03.963Z,68.78
2022-11-17T00:53:49.566Z,66.10
2022-11-17T00:58:35.583Z,53.55
2022-11-17T01:03:20.887Z,59.92
2022-11-17T01:08:08.820Z,65.00
2022-11-17T01:12:54.127Z,59.40
2022-11-17T01:17:39.169Z,59.00
2022-11-17T01:22:24.489Z,56.80
2022-11-17T01:27:12.135Z,59.85
2022-11-17T01:31:57.645Z,55.20
2022-11-17T01:36:56.756Z,51.15
2022-11-17T01:41:42.039Z,49.75
2022-11-17T01:46:35.985Z,60.22
2022-11-17T01:51:22.336Z,54.13
2022-11-17T01:56:12.701Z,53.50
2022-11-17T02:00:58.953Z,51.67
2022-11-17T02:05:54.783Z,48.53
2022-11-17T02:10:40.749Z,51.45
2022-11-17T02:15:25.958Z,52.88
2022-11-17T02:20:15.887Z,58.88
2022-11-17T02:25:27.129Z,54.22
2022-11-17T02:30:18.400Z,69.22
2022-11-17T02:35:14.827Z,50.05
2022-11-17T02:40:05.664Z,61.10
2022-11-17T02:44:58.055Z,63.92
2022-11-17T02:49:50.078Z,56.88
2022-11-17T02:59:25.195Z,56.58
2022-11-17T03:04:32.371Z,70.13
2022-11-17T03:09:29.005Z,73.80
2022-11-17T03:14:22.572Z,71.55
2022-11-17T03:19:14.733Z,69.22
2022-11-17T03:24:06.928Z,58.92
2022-11-17T03:28:58.032Z,56.20
2022-11-17T03:33:46.387Z,50.03
2022-11-17T03:38:36.067Z,48.42
2022-11-17T03:43:23.410Z,42.97
2022-11-17T03:48:17.319Z,37.47
2022-11-17T03:53:03.546Z,57.72
2022-11-17T03:57:55.936Z,51.25
2022-11-17T04:07:31.348Z,55.97
2022-11-17T04:12:28.724Z,51.08
2022-11-17T04:17:14.040Z,60.72
2022-11-17T04:21:59.160Z,68.60
2022-11-17T04:26:59.678Z,64.28
2022-11-17T04:31:44.994Z,56.35
2022-11-17T04:36:32.340Z,61.40
2022-11-17T04:41:31.886Z,65.93
2022-11-17T04:46:20.119Z,63.20
2022-11-17T04:51:05.409Z,71.57
2022-11-17T04:55:50.700Z,58.25
2022-11-17T05:00:36.016Z,58.83
2022-11-17T05:05:23.672Z,51.83
2022-11-17T05:10:14.848Z,45.65
2022-11-17T05:14:59.884Z,43.88
2022-11-17T05:19:47.287Z,40.40
2022-11-17T05:24:34.921Z,42.15
2022-11-17T05:29:22.273Z,42.47
2022-11-17T05:34:08.924Z,47.97
2022-11-17T05:38:54.457Z,43.53
2022-11-17T05:43:42.260Z,40.80
2022-11-17T05:48:27.820Z,45.30
2022-11-17T05:53:12.888Z,45.17
2022-11-17T05:58:01.501Z,44.70
2022-11-17T06:02:52.819Z,41.25
2022-11-17T06:07:39.087Z,46.88
2022-11-17T06:12:24.388Z,42.28
2022-11-17T06:17:16.343Z,59.30
2022-11-17T06:22:13.354Z,44.30
2022-11-17T06:26:59.085Z,41.30
2022-11-17T06:31:45.829Z,33.60
2022-11-17T06:36:31.789Z,41.65
2022-11-17T06:41:19.387Z,36.20
2022-11-17T06:46:06.779Z,30.38
2022-11-17T06:50:51.825Z,32.95
2022-11-17T06:55:38.122Z,32.72
2022-11-17T07:00:26.360Z,35.40
2022-11-17T07:05:12.479Z,24.13
2022-11-17T07:09:57.897Z,31.52
2022-11-17T07:14:42.935Z,29.75
2022-11-17T07:19:30.895Z,31.05
2022-11-17T07:24:15.931Z,49.17
2022-11-17T07:29:01.378Z,38.28
2022-11-17T07:33:46.413Z,37.53
2022-11-17T07:38:37.106Z,39.33
2022-11-17T07:43:22.594Z,33.90
2022-11-17T07:48:09.183Z,27.33
2022-11-17T07:52:55.086Z,28.88
2022-11-17T07:57:43.079Z,29.83
2022-11-17T08:02:28.689Z,39.22
2022-11-17T08:07:14.231Z,33.35
2022-11-17T08:11:59.339Z,40.00
2022-11-17T08:16:47.233Z,39.90
2022-11-17T08:21:32.626Z,43.60
2022-11-17T08:26:18.028Z,31.52
2022-11-17T08:31:04.445Z,32.72
2022-11-17T08:35:52.357Z,39.33
2022-11-17T08:40:37.403Z,37.33
2022-11-17T08:45:22.794Z,31.98
2022-11-17T08:50:09.369Z,30.67
2022-11-17T08:54:57.456Z,37.55
2022-11-17T08:59:42.546Z,35.58
2022-11-17T09:04:27.889Z,34.22
2022-11-17T09:09:12.963Z,37.60
2022-11-17T09:14:00.940Z,29.05
2022-11-17T09:18:46.342Z,35.50
2022-11-17T09:23:32.334Z,37.55
2022-11-17T09:28:17.497Z,29.08
2022-11-17T09:33:05.530Z,32.10
2022-11-17T09:37:50.793Z,31.63
2022-11-17T09:42:41.522Z,33.70
2022-11-17T09:47:35.717Z,47.17
2022-11-17T09:52:27.244Z,37.17
2022-11-17T09:57:23.222Z,38.63
2022-11-17T10:02:13.093Z,36.60
2022-11-17T10:07:00.474Z,26.17
2022-11-17T10:11:49.466Z,31.15
2022-11-17T10:16:34.845Z,30.55
2022-11-17T10:21:19.909Z,35.20
2022-11-17T10:26:11.541Z,28.48
2022-11-17T10:31:02.995Z,21.07
2022-11-17T10:35:58.239Z,16.13
2022-11-17T10:40:52.179Z,14.82
2022-11-17T10:45:37.581Z,18.48
2022-11-17T10:50:27.958Z,21.42
2022-11-17T10:55:31.766Z,25.10
2022-11-17T11:00:27.045Z,25.92
2022-11-17T11:05:14.853Z,25.85
2022-11-17T11:10:07.437Z,25.65
2022-11-17T11:14:57.318Z,26.85
2022-11-17T11:19:44.534Z,25.33
2022-11-17T11:24:39.480Z,24.92
2022-11-17T11:29:36.619Z,22.40
2022-11-17T11:34:44.084Z,18.40
2022-11-17T11:39:43.330Z,24.08
2022-11-17T11:44:58.637Z,17.10
2022-11-17T11:49:48.798Z,18.60
2022-11-17T11:54:40.476Z,27.10
2022-11-17T12:04:32.557Z,34.55
2022-11-17T12:09:36.262Z,33.90
2022-11-17T12:14:22.380Z,31.75
2022-11-17T12:19:50.982Z,31.80
2022-11-17T12:24:41.224Z,34.95
2022-11-17T12:29:36.307Z,26.45
2022-11-17T12:34:25.772Z,26.55
2022-11-17T12:39:49.397Z,21.10
2022-11-17T12:44:52.713Z,24.38
2022-11-17T12:49:48.991Z,27.08
2022-11-17T12:54:45.250Z,23.08
2022-11-17T13:00:07.682Z,18.95
2022-11-17T13:04:58.758Z,22.30
2022-11-17T13:09:46.735Z,24.02
2022-11-17T13:14:33.812Z,32.00
2022-11-17T13:19:39.977Z,24.13
2022-11-17T13:24:33.173Z,27.70
2022-11-17T13:29:24.427Z,26.52
2022-11-17T13:34:17.031Z,18.55
2022-11-17T13:39:03.335Z,13.13
2022-11-17T13:43:49.862Z,25.13
2022-11-17T13:48:39.902Z,31.95
2022-11-17T13:53:28.598Z,22.98
2022-11-17T13:58:27.573Z,28.65
2022-11-17T14:03:38.306Z,33.58
2022-11-17T14:08:29.869Z,30.23
2022-11-17T14:13:30.124Z,18.27
2022-11-17T14:18:28.491Z,22.10
2022-11-17T14:23:21.902Z,34.40
2022-11-17T14:28:07.372Z,27.98
2022-11-17T14:32:52.385Z,29.42
2022-11-17T14:37:37.903Z,31.38
2022-11-17T14:42:25.633Z,26.52
2022-11-17T14:47:11.069Z,33.08
2022-11-17T14:51:59.305Z,31.40
2022-11-17T14:56:44.659Z,20.67
2022-11-17T15:01:34.850Z,24.52
2022-11-17T15:06:20.566Z,22.67
2022-11-17T15:11:06.253Z,28.55
2022-11-17T15:15:51.513Z,34.85
2022-11-17T15:20:39.117Z,22.02
2022-11-17T15:25:24.416Z,23.00
2022-11-17T15:30:11.203Z,20.52
2022-11-17T15:34:56.559Z,32.33
2022-11-17T15:39:44.207Z,19.90
2022-11-17T15:44:29.555Z,20.58
2022-11-17T15:49:15.040Z,27.52
2022-11-17T15:54:02.288Z,26.13
2022-11-17T15:58:51.293Z,25.25
2022-11-17T16:03:36.592Z,30.40
2022-11-17T16:08:21.879Z,37.38
2022-11-17T16:13:07.931Z,30.15
2022-11-17T16:17:55.995Z,30.45
2022-11-17T16:22:41.279Z,34.97
2022-11-17T16:27:26.313Z,27.48
2022-11-17T16:32:11.562Z,25.63
2022-11-17T16:36:59.453Z,27.63
2022-11-17T16:41:46.076Z,23.95
2022-11-17T16:46:33.051Z,27.48
2022-11-17T16:51:18.694Z,24.15
2022-11-17T16:56:10.007Z,22.35
2022-11-17T17:00:55.170Z,26.13
2022-11-17T17:05:41.287Z,26.88
2022-11-17T17:10:26.808Z,19.88
2022-11-17T17:15:15.102Z,25.77
2022-11-17T17:20:00.142Z,28.98
2022-11-17T17:24:45.525Z,18.83
2022-11-17T17:29:30.554Z,21.73
2022-11-17T17:34:18.521Z,17.38
2022-11-17T17:39:05.036Z,23.88
2022-11-17T17:43:51.592Z,17.80
2022-11-17T17:48:38.272Z,20.83
2022-11-17T17:53:27.885Z,23.55
2022-11-17T17:58:13.404Z,27.40
2022-11-17T18:02:58.569Z,22.50
2022-11-17T18:07:44.061Z,18.55
2022-11-17T18:12:31.683Z,27.17
2022-11-17T18:17:17.056Z,24.85
2022-11-17T18:22:02.635Z,17.52
2022-11-17T18:26:47.728Z,14.90
2022-11-17T18:31:37.450Z,20.42
2022-11-17T18:36:22.613Z,26.77
2022-11-17T18:41:09.946Z,28.33
2022-11-17T18:45:55.514Z,21.63
2022-11-17T18:51:17.233Z,26.65
2022-11-17T18:55:52.977Z,22.90
2022-11-17T19:00:38.064Z,18.63
2022-11-17T19:05:23.973Z,25.40
2022-11-17T19:10:12.566Z,21.25
2022-11-17T19:14:58.195Z,24.13
2022-11-17T19:19:43.311Z,21.33
2022-11-17T19:24:28.797Z,17.95
2022-11-17T19:29:17.799Z,18.60
2022-11-17T19:34:03.253Z,16.10
2022-11-17T19:38:52.239Z,17.83
2022-11-17T19:43:41.842Z,16.77
2022-11-17T19:48:33.569Z,12.80
2022-11-17T19:53:18.562Z,16.33
2022-11-17T19:58:04.044Z,22.35
2022-11-17T20:02:49.130Z,19.17
2022-11-17T20:07:37.136Z,29.52
2022-11-17T20:12:22.732Z,20.58
2022-11-17T20:17:08.134Z,23.42
2022-11-17T20:21:53.169Z,19.30
2022-11-17T20:26:43.159Z,26.58
2022-11-17T20:31:30.759Z,23.33
2022-11-17T20:36:18.308Z,22.70
2022-11-17T20:41:04.058Z,22.63
2022-11-17T20:45:53.645Z,13.23
2022-11-17T20:50:38.718Z,20.48
2022-11-17T20:55:24.168Z,18.95
2022-11-17T21:00:10.860Z,12.77
2022-11-17T21:04:59.128Z,9.57
2022-11-17T21:09:44.165Z,14.15
2022-11-17T21:14:30.807Z,16.25
2022-11-17T21:19:16.883Z,22.88
2022-11-17T21:24:05.352Z,19.83
2022-11-17T21:28:50.442Z,11.05
2022-11-17T21:33:35.873Z,15.10
2022-11-17T21:38:20.892Z,19.30
2022-11-17T21:43:08.794Z,20.73
2022-11-17T21:47:59.122Z,24.48
2022-11-17T21:52:44.774Z,20.48
2022-11-17T21:57:30.177Z,20.20
2022-11-17T22:02:17.858Z,23.17
2022-11-17T22:07:03.164Z,23.08
2022-11-17T22:11:48.231Z,12.88
2022-11-17T22:16:33.832Z,16.17
2022-11-17T22:21:21.786Z,15.45
2022-11-17T22:26:09.201Z,14.20
2022-11-17T22:30:55.728Z,17.75
2022-11-17T22:35:40.749Z,12.45
2022-11-17T22:40:28.653Z,15.43
2022-11-17T22:45:14.023Z,17.70
2022-11-17T22:49:59.351Z,15.60
2022-11-17T22:54:44.615Z,18.98
2022-11-17T22:59:33.539Z,14.15
2022-11-17T23:04:19.372Z,15.48
2022-11-17T23:09:04.812Z,12.80
2022-11-17T23:13:49.823Z,15.13
2022-11-17T23:18:38.343Z,15.13
2022-11-17T23:23:23.753Z,16.58
2022-11-17T23:28:09.068Z,20.58
2022-11-17T23:32:57.545Z,13.85
2022-11-17T23:37:45.242Z,12.32
2022-11-17T23:42:32.700Z,16.45
2022-11-17T23:47:18.465Z,14.35
2022-11-17T23:52:04.252Z,19.50
2022-11-17T23:56:53.289Z,14.35
